Terminal Aerodrome Forecast
Issued by NWS

Home | Current Version | Previous Version | Text Only | Print | Product List | Glossary Off
Versions: 1 2 3 4 5 6 7 8 9 10 11 12 13 14 15 16 17 18 19 20 21 22 23 24 25 26 27 28 29 30 31 32 33 34 35 36 37 38 39 40 41 42 43 44 45 46

128
FTUS43 KGRB 160520
TAFATW
TAF
KATW 160520Z 1606/1706 29014G22KT P6SM OVC019
      TEMPO 1606/1610 OVC021
     FM161000 33011G16KT P6SM BKN018
     FM161800 36008KT P6SM SCT020 SCT200
     FM162300 08004KT P6SM FEW100 BKN150
     FM170300 10005KT P6SM SCT070 BKN100=

USA.gov is the U.S. government's official web portal to all federal, state and local government web resources and services.